sensor_id;sensor_type;location;lat;lon;timestamp;pressure;altitude;pressure_sealevel;temperature;humidity
33151;BME280;19508;42.578;23.416;2022-10-16T00:01:12;94309.66;;;10.27;68.55
33151;BME280;19508;42.578;23.416;2022-10-16T00:03:39;94308.75;;;10.10;68.56
33151;BME280;19508;42.578;23.416;2022-10-16T00:06:05;94324.41;;;10.13;68.91
33151;BME280;19508;42.578;23.416;2022-10-16T00:08:32;94321.59;;;10.08;68.68
33151;BME280;19508;42.578;23.416;2022-10-16T00:11:04;94327.81;;;10.08;68.80
33151;BME280;19508;42.578;23.416;2022-10-16T00:13:31;94328.03;;;10.07;68.39
33151;BME280;19508;42.578;23.416;2022-10-16T00:15:58;94324.19;;;10.03;68.22
33151;BME280;19508;42.578;23.416;2022-10-16T00:18:25;94316.00;;;9.98;68.53
33151;BME280;19508;42.578;23.416;2022-10-16T00:20:50;94321.50;;;9.91;68.47
33151;BME280;19508;42.578;23.416;2022-10-16T00:23:16;94321.66;;;9.84;68.98
33151;BME280;19508;42.578;23.416;2022-10-16T00:25:41;94318.97;;;9.84;68.77
33151;BME280;19508;42.578;23.416;2022-10-16T00:28:07;94328.56;;;9.80;69.00
33151;BME280;19508;42.578;23.416;2022-10-16T00:30:32;94331.16;;;9.75;69.34
33151;BME280;19508;42.578;23.416;2022-10-16T00:32:57;94330.69;;;9.78;69.18
33151;BME280;19508;42.578;23.416;2022-10-16T00:35:23;94342.00;;;9.80;69.34
33151;BME280;19508;42.578;23.416;2022-10-16T00:37:48;94336.28;;;9.77;69.30
33151;BME280;19508;42.578;23.416;2022-10-16T00:40:14;94337.94;;;9.66;69.75
33151;BME280;19508;42.578;23.416;2022-10-16T00:42:39;94338.53;;;9.68;69.61
33151;BME280;19508;42.578;23.416;2022-10-16T00:45:06;94341.66;;;9.65;69.60
33151;BME280;19508;42.578;23.416;2022-10-16T00:47:43;94340.28;;;9.63;69.78
33151;BME280;19508;42.578;23.416;2022-10-16T00:50:30;94339.22;;;9.52;70.06
33151;BME280;19508;42.578;23.416;2022-10-16T00:52:57;94339.00;;;9.42;70.00
33151;BME280;19508;42.578;23.416;2022-10-16T00:55:24;94345.97;;;9.31;70.51
33151;BME280;19508;42.578;23.416;2022-10-16T00:57:51;94351.25;;;9.38;70.20
33151;BME280;19508;42.578;23.416;2022-10-16T01:00:22;94345.44;;;9.41;69.92
33151;BME280;19508;42.578;23.416;2022-10-16T01:02:53;94353.50;;;9.41;69.79
33151;BME280;19508;42.578;23.416;2022-10-16T01:05:24;94350.44;;;9.25;70.01
33151;BME280;19508;42.578;23.416;2022-10-16T01:08:12;94353.22;;;9.30;70.06
33151;BME280;19508;42.578;23.416;2022-10-16T01:11:01;94358.59;;;9.30;69.82
33151;BME280;19508;42.578;23.416;2022-10-16T01:13:35;94367.72;;;9.29;69.51
33151;BME280;19508;42.578;23.416;2022-10-16T01:16:31;94367.13;;;9.16;69.53
33151;BME280;19508;42.578;23.416;2022-10-16T01:19:05;94363.72;;;9.09;69.99
33151;BME280;19508;42.578;23.416;2022-10-16T01:21:36;94374.00;;;9.00;70.17
33151;BME280;19508;42.578;23.416;2022-10-16T01:27:15;94367.31;;;8.91;70.34
33151;BME280;19508;42.578;23.416;2022-10-16T01:32:38;94350.25;;;8.85;71.34
33151;BME280;19508;42.578;23.416;2022-10-16T01:35:11;94348.47;;;8.79;71.78
33151;BME280;19508;42.578;23.416;2022-10-16T01:38:02;94344.78;;;8.92;71.52
33151;BME280;19508;42.578;23.416;2022-10-16T01:40:29;94339.88;;;8.89;71.23
33151;BME280;19508;42.578;23.416;2022-10-16T01:43:04;94350.34;;;8.79;71.89
33151;BME280;19508;42.578;23.416;2022-10-16T01:45:31;94340.25;;;8.62;72.21
33151;BME280;19508;42.578;23.416;2022-10-16T01:48:00;94353.13;;;8.72;72.66
33151;BME280;19508;42.578;23.416;2022-10-16T01:50:31;94353.03;;;8.79;73.33
33151;BME280;19508;42.578;23.416;2022-10-16T01:52:59;94363.00;;;8.90;72.96
33151;BME280;19508;42.578;23.416;2022-10-16T01:55:32;94363.69;;;8.97;72.57
33151;BME280;19508;42.578;23.416;2022-10-16T01:58:00;94362.44;;;8.99;72.49
33151;BME280;19508;42.578;23.416;2022-10-16T02:00:27;94362.66;;;8.98;72.33
33151;BME280;19508;42.578;23.416;2022-10-16T02:02:54;94364.31;;;9.11;72.00
33151;BME280;19508;42.578;23.416;2022-10-16T02:05:27;94362.78;;;9.03;71.53
33151;BME280;19508;42.578;23.416;2022-10-16T02:07:54;94363.25;;;9.12;71.44
33151;BME280;19508;42.578;23.416;2022-10-16T02:10:20;94365.59;;;9.20;71.06
33151;BME280;19508;42.578;23.416;2022-10-16T02:12:50;94377.06;;;9.15;71.28
33151;BME280;19508;42.578;23.416;2022-10-16T02:15:18;94376.59;;;9.18;70.93
33151;BME280;19508;42.578;23.416;2022-10-16T02:17:44;94375.88;;;9.11;71.09
33151;BME280;19508;42.578;23.416;2022-10-16T02:20:10;94379.59;;;8.98;71.29
33151;BME280;19508;42.578;23.416;2022-10-16T02:22:39;94386.28;;;8.77;72.25
33151;BME280;19508;42.578;23.416;2022-10-16T02:30:13;94390.56;;;8.67;73.02
33151;BME280;19508;42.578;23.416;2022-10-16T02:32:43;94395.25;;;8.71;72.97
33151;BME280;19508;42.578;23.416;2022-10-16T02:35:10;94385.56;;;8.70;72.89
33151;BME280;19508;42.578;23.416;2022-10-16T02:37:38;94391.91;;;8.76;72.77
33151;BME280;19508;42.578;23.416;2022-10-16T02:40:04;94392.47;;;8.78;72.88
33151;BME280;19508;42.578;23.416;2022-10-16T02:42:38;94399.31;;;8.62;73.72
33151;BME280;19508;42.578;23.416;2022-10-16T02:45:05;94389.75;;;8.66;74.10
33151;BME280;19508;42.578;23.416;2022-10-16T02:47:32;94391.22;;;8.81;73.54
33151;BME280;19508;42.578;23.416;2022-10-16T02:49:57;94402.41;;;8.77;73.54
33151;BME280;19508;42.578;23.416;2022-10-16T02:52:22;94394.22;;;8.72;73.91
33151;BME280;19508;42.578;23.416;2022-10-16T02:54:48;94391.44;;;8.79;73.43
33151;BME280;19508;42.578;23.416;2022-10-16T02:57:13;94389.22;;;8.76;73.47
33151;BME280;19508;42.578;23.416;2022-10-16T02:59:39;94385.13;;;8.73;73.74
33151;BME280;19508;42.578;23.416;2022-10-16T03:02:04;94388.16;;;8.77;73.45
33151;BME280;19508;42.578;23.416;2022-10-16T03:04:30;94400.25;;;8.68;73.83
33151;BME280;19508;42.578;23.416;2022-10-16T03:06:55;94386.75;;;8.74;73.36
33151;BME280;19508;42.578;23.416;2022-10-16T03:09:21;94401.97;;;8.81;73.00
33151;BME280;19508;42.578;23.416;2022-10-16T03:11:46;94397.50;;;8.74;72.89
33151;BME280;19508;42.578;23.416;2022-10-16T03:14:12;94386.03;;;8.67;72.92
33151;BME280;19508;42.578;23.416;2022-10-16T03:16:37;94394.09;;;8.67;72.86
33151;BME280;19508;42.578;23.416;2022-10-16T03:19:02;94396.31;;;8.70;72.85
33151;BME280;19508;42.578;23.416;2022-10-16T03:21:28;94404.81;;;8.67;73.29
33151;BME280;19508;42.578;23.416;2022-10-16T03:23:53;94401.31;;;8.67;73.38
33151;BME280;19508;42.578;23.416;2022-10-16T03:26:19;94390.34;;;8.68;72.39
33151;BME280;19508;42.578;23.416;2022-10-16T03:28:44;94399.91;;;8.64;71.94
33151;BME280;19508;42.578;23.416;2022-10-16T03:31:09;94404.53;;;8.57;73.07
33151;BME280;19508;42.578;23.416;2022-10-16T03:33:35;94402.69;;;8.58;72.95
33151;BME280;19508;42.578;23.416;2022-10-16T03:36:00;94385.03;;;8.50;72.28
33151;BME280;19508;42.578;23.416;2022-10-16T03:38:26;94399.75;;;8.59;72.84
33151;BME280;19508;42.578;23.416;2022-10-16T03:40:51;94407.66;;;8.54;73.06
33151;BME280;19508;42.578;23.416;2022-10-16T03:43:16;94406.19;;;8.58;73.32
33151;BME280;19508;42.578;23.416;2022-10-16T03:45:42;94403.03;;;8.61;72.83
33151;BME280;19508;42.578;23.416;2022-10-16T03:48:07;94396.31;;;8.70;72.33
33151;BME280;19508;42.578;23.416;2022-10-16T03:50:33;94405.06;;;8.66;71.69
33151;BME280;19508;42.578;23.416;2022-10-16T03:52:58;94408.56;;;8.66;71.55
33151;BME280;19508;42.578;23.416;2022-10-16T03:55:23;94396.75;;;8.67;70.95
33151;BME280;19508;42.578;23.416;2022-10-16T03:57:49;94391.56;;;8.54;71.17
33151;BME280;19508;42.578;23.416;2022-10-16T04:00:14;94394.84;;;8.56;70.40
33151;BME280;19508;42.578;23.416;2022-10-16T04:02:40;94395.09;;;8.55;69.90
33151;BME280;19508;42.578;23.416;2022-10-16T04:05:06;94404.41;;;8.52;70.15
33151;BME280;19508;42.578;23.416;2022-10-16T04:07:32;94395.75;;;8.50;69.90
33151;BME280;19508;42.578;23.416;2022-10-16T04:09:57;94398.41;;;8.38;69.99
33151;BME280;19508;42.578;23.416;2022-10-16T04:12:24;94405.97;;;8.41;70.21
33151;BME280;19508;42.578;23.416;2022-10-16T04:14:50;94406.66;;;8.37;70.43
33151;BME280;19508;42.578;23.416;2022-10-16T04:17:15;94404.59;;;8.39;70.44
33151;BME280;19508;42.578;23.416;2022-10-16T04:19:41;94410.75;;;8.39;70.08
33151;BME280;19508;42.578;23.416;2022-10-16T04:22:06;94410.00;;;8.32;70.36
33151;BME280;19508;42.578;23.416;2022-10-16T04:24:32;94408.50;;;8.18;71.02
33151;BME280;19508;42.578;23.416;2022-10-16T04:26:57;94407.63;;;8.06;71.74
33151;BME280;19508;42.578;23.416;2022-10-16T04:29:23;94401.28;;;8.00;72.15
33151;BME280;19508;42.578;23.416;2022-10-16T04:31:48;94411.34;;;8.05;72.70
33151;BME280;19508;42.578;23.416;2022-10-16T04:34:13;94412.88;;;7.94;73.33
33151;BME280;19508;42.578;23.416;2022-10-16T04:36:39;94407.09;;;7.97;73.09
33151;BME280;19508;42.578;23.416;2022-10-16T04:39:04;94415.22;;;8.09;72.62
33151;BME280;19508;42.578;23.416;2022-10-16T04:41:30;94420.22;;;8.05;72.69
33151;BME280;19508;42.578;23.416;2022-10-16T04:43:55;94423.03;;;8.10;72.71
33151;BME280;19508;42.578;23.416;2022-10-16T04:46:20;94425.19;;;8.02;73.03
33151;BME280;19508;42.578;23.416;2022-10-16T04:48:46;94429.31;;;8.04;73.12
33151;BME280;19508;42.578;23.416;2022-10-16T04:51:12;94429.44;;;7.91;74.02
33151;BME280;19508;42.578;23.416;2022-10-16T04:53:37;94434.63;;;7.86;73.81
33151;BME280;19508;42.578;23.416;2022-10-16T04:56:02;94433.16;;;7.90;74.43
33151;BME280;19508;42.578;23.416;2022-10-16T04:58:28;94436.88;;;7.89;74.24
33151;BME280;19508;42.578;23.416;2022-10-16T05:00:53;94438.69;;;7.95;74.48
33151;BME280;19508;42.578;23.416;2022-10-16T05:03:25;94443.13;;;8.01;74.45
33151;BME280;19508;42.578;23.416;2022-10-16T05:05:50;94441.44;;;8.07;74.15
33151;BME280;19508;42.578;23.416;2022-10-16T05:08:16;94444.19;;;8.00;74.53
33151;BME280;19508;42.578;23.416;2022-10-16T05:10:42;94443.13;;;7.83;75.45
33151;BME280;19508;42.578;23.416;2022-10-16T05:13:08;94457.56;;;7.82;75.88
33151;BME280;19508;42.578;23.416;2022-10-16T05:15:34;94466.16;;;7.90;76.13
33151;BME280;19508;42.578;23.416;2022-10-16T05:17:59;94462.81;;;7.95;75.55
33151;BME280;19508;42.578;23.416;2022-10-16T05:20:25;94463.69;;;7.89;75.50
33151;BME280;19508;42.578;23.416;2022-10-16T05:22:50;94461.31;;;7.99;74.86
33151;BME280;19508;42.578;23.416;2022-10-16T05:25:16;94463.19;;;8.17;74.48
33151;BME280;19508;42.578;23.416;2022-10-16T05:27:41;94463.13;;;8.24;74.04
33151;BME280;19508;42.578;23.416;2022-10-16T05:30:07;94470.28;;;8.30;74.61
33151;BME280;19508;42.578;23.416;2022-10-16T05:32:33;94468.03;;;8.27;75.04
33151;BME280;19508;42.578;23.416;2022-10-16T05:34:58;94463.38;;;8.40;75.08
33151;BME280;19508;42.578;23.416;2022-10-16T05:37:25;94472.94;;;8.55;74.83
33151;BME280;19508;42.578;23.416;2022-10-16T05:39:52;94465.41;;;8.63;74.55
33151;BME280;19508;42.578;23.416;2022-10-16T05:42:17;94465.91;;;8.72;74.47
33151;BME280;19508;42.578;23.416;2022-10-16T05:44:43;94469.72;;;8.94;73.80
33151;BME280;19508;42.578;23.416;2022-10-16T05:47:08;94467.53;;;9.03;73.57
33151;BME280;19508;42.578;23.416;2022-10-16T05:49:35;94462.34;;;9.20;73.05
33151;BME280;19508;42.578;23.416;2022-10-16T05:52:01;94474.06;;;9.25;72.58
33151;BME280;19508;42.578;23.416;2022-10-16T05:54:26;94469.09;;;9.52;72.38
33151;BME280;19508;42.578;23.416;2022-10-16T05:56:52;94468.03;;;9.65;71.24
33151;BME280;19508;42.578;23.416;2022-10-16T05:59:17;94478.25;;;9.75;71.14
33151;BME280;19508;42.578;23.416;2022-10-16T06:01:42;94481.03;;;9.80;70.65
33151;BME280;19508;42.578;23.416;2022-10-16T06:04:09;94480.97;;;10.10;69.89
33151;BME280;19508;42.578;23.416;2022-10-16T06:06:34;94475.81;;;10.20;69.57
33151;BME280;19508;42.578;23.416;2022-10-16T06:09:02;94477.69;;;10.43;68.14
33151;BME280;19508;42.578;23.416;2022-10-16T06:11:29;94473.03;;;10.79;67.89
33151;BME280;19508;42.578;23.416;2022-10-16T06:13:59;94495.34;;;11.02;66.39
33151;BME280;19508;42.578;23.416;2022-10-16T06:16:32;94493.72;;;11.30;65.79
33151;BME280;19508;42.578;23.416;2022-10-16T06:18:58;94507.72;;;11.61;64.53
33151;BME280;19508;42.578;23.416;2022-10-16T06:21:28;94507.38;;;11.85;63.68
33151;BME280;19508;42.578;23.416;2022-10-16T06:23:54;94507.63;;;11.84;63.17
33151;BME280;19508;42.578;23.416;2022-10-16T06:26:22;94513.69;;;11.91;62.73
33151;BME280;19508;42.578;23.416;2022-10-16T06:28:49;94511.50;;;11.88;63.03
33151;BME280;19508;42.578;23.416;2022-10-16T06:31:15;94499.69;;;11.94;62.71
33151;BME280;19508;42.578;23.416;2022-10-16T06:33:42;94513.34;;;12.04;62.71
33151;BME280;19508;42.578;23.416;2022-10-16T06:38:34;94506.53;;;12.52;62.06
33151;BME280;19508;42.578;23.416;2022-10-16T06:41:00;94512.63;;;12.64;61.80
33151;BME280;19508;42.578;23.416;2022-10-16T06:43:28;94520.94;;;12.80;60.90
33151;BME280;19508;42.578;23.416;2022-10-16T06:45:58;94524.03;;;12.88;60.93
33151;BME280;19508;42.578;23.416;2022-10-16T06:48:24;94524.50;;;13.02;60.87
33151;BME280;19508;42.578;23.416;2022-10-16T06:51:00;94519.53;;;13.38;59.95
33151;BME280;19508;42.578;23.416;2022-10-16T06:53:28;94522.50;;;13.63;58.96
33151;BME280;19508;42.578;23.416;2022-10-16T06:55:54;94525.94;;;13.80;58.22
33151;BME280;19508;42.578;23.416;2022-10-16T06:58:19;94529.28;;;13.66;57.97
33151;BME280;19508;42.578;23.416;2022-10-16T07:00:45;94533.63;;;13.40;58.36
33151;BME280;19508;42.578;23.416;2022-10-16T07:03:10;94537.56;;;13.54;58.91
33151;BME280;19508;42.578;23.416;2022-10-16T07:05:42;94535.69;;;13.81;58.06
33151;BME280;19508;42.578;23.416;2022-10-16T07:08:08;94532.97;;;13.81;57.66
33151;BME280;19508;42.578;23.416;2022-10-16T07:10:34;94529.59;;;14.28;58.01
33151;BME280;19508;42.578;23.416;2022-10-16T07:13:00;94532.59;;;14.69;55.56
33151;BME280;19508;42.578;23.416;2022-10-16T07:15:26;94527.97;;;15.07;54.88
33151;BME280;19508;42.578;23.416;2022-10-16T07:17:52;94536.50;;;15.41;54.36
33151;BME280;19508;42.578;23.416;2022-10-16T07:20:18;94537.66;;;15.60;53.88
33151;BME280;19508;42.578;23.416;2022-10-16T07:22:44;94540.78;;;15.99;52.48
33151;BME280;19508;42.578;23.416;2022-10-16T07:25:09;94536.44;;;16.34;51.29
33151;BME280;19508;42.578;23.416;2022-10-16T07:27:36;94540.25;;;16.38;51.21
33151;BME280;19508;42.578;23.416;2022-10-16T07:30:02;94538.63;;;16.52;50.41
33151;BME280;19508;42.578;23.416;2022-10-16T07:32:28;94539.72;;;16.72;49.86
33151;BME280;19508;42.578;23.416;2022-10-16T07:34:53;94537.22;;;17.01;48.96
33151;BME280;19508;42.578;23.416;2022-10-16T07:37:21;94529.22;;;17.30;48.06
33151;BME280;19508;42.578;23.416;2022-10-16T07:39:46;94546.25;;;17.71;47.86
33151;BME280;19508;42.578;23.416;2022-10-16T07:42:12;94540.78;;;18.15;46.41
33151;BME280;19508;42.578;23.416;2022-10-16T07:44:37;94543.63;;;18.39;45.92
33151;BME280;19508;42.578;23.416;2022-10-16T07:47:02;94536.38;;;18.24;45.81
33151;BME280;19508;42.578;23.416;2022-10-16T07:49:28;94540.09;;;18.39;45.69
33151;BME280;19508;42.578;23.416;2022-10-16T07:51:53;94534.41;;;18.64;45.57
33151;BME280;19508;42.578;23.416;2022-10-16T07:54:19;94530.88;;;18.64;44.80
33151;BME280;19508;42.578;23.416;2022-10-16T07:56:44;94545.66;;;18.92;44.78
33151;BME280;19508;42.578;23.416;2022-10-16T07:59:10;94536.03;;;19.23;43.77
33151;BME280;19508;42.578;23.416;2022-10-16T08:01:36;94544.41;;;19.08;43.95
33151;BME280;19508;42.578;23.416;2022-10-16T08:04:01;94539.63;;;19.42;42.86
33151;BME280;19508;42.578;23.416;2022-10-16T08:06:26;94542.00;;;19.73;42.82
33151;BME280;19508;42.578;23.416;2022-10-16T08:08:52;94540.56;;;19.99;41.67
33151;BME280;19508;42.578;23.416;2022-10-16T08:11:17;94543.53;;;20.03;41.26
33151;BME280;19508;42.578;23.416;2022-10-16T08:13:43;94541.38;;;20.56;40.87
33151;BME280;19508;42.578;23.416;2022-10-16T08:16:08;94544.47;;;20.69;40.15
33151;BME280;19508;42.578;23.416;2022-10-16T08:18:38;94536.97;;;20.74;39.80
33151;BME280;19508;42.578;23.416;2022-10-16T08:21:05;94550.06;;;20.45;38.55
33151;BME280;19508;42.578;23.416;2022-10-16T08:23:32;94542.81;;;20.68;39.95
33151;BME280;19508;42.578;23.416;2022-10-16T08:26:06;94531.72;;;20.45;39.91
33151;BME280;19508;42.578;23.416;2022-10-16T08:28:31;94539.03;;;20.82;38.65
33151;BME280;19508;42.578;23.416;2022-10-16T08:31:05;94533.69;;;20.59;39.66
33151;BME280;19508;42.578;23.416;2022-10-16T08:33:31;94548.09;;;21.10;38.44
33151;BME280;19508;42.578;23.416;2022-10-16T08:35:56;94537.47;;;21.09;38.42
33151;BME280;19508;42.578;23.416;2022-10-16T08:38:21;94543.63;;;20.87;40.01
33151;BME280;19508;42.578;23.416;2022-10-16T08:40:47;94535.88;;;21.22;39.27
33151;BME280;19508;42.578;23.416;2022-10-16T08:43:35;94542.81;;;21.00;38.52
33151;BME280;19508;42.578;23.416;2022-10-16T08:46:15;94542.28;;;20.84;39.42
33151;BME280;19508;42.578;23.416;2022-10-16T08:48:53;94534.84;;;21.18;38.49
33151;BME280;19508;42.578;23.416;2022-10-16T08:51:23;94537.13;;;21.43;39.14
33151;BME280;19508;42.578;23.416;2022-10-16T08:53:55;94530.44;;;21.63;38.45
33151;BME280;19508;42.578;23.416;2022-10-16T08:56:21;94538.53;;;21.27;38.23
33151;BME280;19508;42.578;23.416;2022-10-16T08:58:48;94550.63;;;21.39;38.36
33151;BME280;19508;42.578;23.416;2022-10-16T09:01:16;94548.88;;;21.44;38.08
33151;BME280;19508;42.578;23.416;2022-10-16T09:04:10;94540.97;;;21.69;38.63
33151;BME280;19508;42.578;23.416;2022-10-16T09:06:54;94544.00;;;22.09;36.97
33151;BME280;19508;42.578;23.416;2022-10-16T09:12:24;94534.19;;;21.53;37.06
33151;BME280;19508;42.578;23.416;2022-10-16T09:20:31;94541.38;;;21.77;36.33
33151;BME280;19508;42.578;23.416;2022-10-16T09:23:18;94536.38;;;21.92;36.12
33151;BME280;19508;42.578;23.416;2022-10-16T09:25:47;94535.69;;;22.37;35.97
33151;BME280;19508;42.578;23.416;2022-10-16T09:28:13;94536.22;;;22.84;33.65
33151;BME280;19508;42.578;23.416;2022-10-16T09:30:39;94537.84;;;22.62;33.24
33151;BME280;19508;42.578;23.416;2022-10-16T09:33:05;94543.94;;;22.59;33.58
33151;BME280;19508;42.578;23.416;2022-10-16T09:35:36;94532.97;;;22.81;33.42
33151;BME280;19508;42.578;23.416;2022-10-16T09:38:02;94534.19;;;23.20;34.10
33151;BME280;19508;42.578;23.416;2022-10-16T09:40:36;94532.72;;;23.54;32.12
33151;BME280;19508;42.578;23.416;2022-10-16T09:43:06;94524.09;;;23.69;31.83
33151;BME280;19508;42.578;23.416;2022-10-16T09:45:38;94516.63;;;23.61;32.21
33151;BME280;19508;42.578;23.416;2022-10-16T09:48:11;94528.06;;;24.11;30.77
33151;BME280;19508;42.578;23.416;2022-10-16T09:50:37;94514.97;;;23.20;31.78
33151;BME280;19508;42.578;23.416;2022-10-16T09:53:11;94523.34;;;23.55;31.61
33151;BME280;19508;42.578;23.416;2022-10-16T09:55:48;94516.03;;;22.57;31.96
33151;BME280;19508;42.578;23.416;2022-10-16T09:58:14;94512.22;;;22.89;31.58
33151;BME280;19508;42.578;23.416;2022-10-16T10:00:41;94517.63;;;22.80;32.70
33151;BME280;19508;42.578;23.416;2022-10-16T10:03:11;94517.63;;;23.03;31.66
33151;BME280;19508;42.578;23.416;2022-10-16T10:05:39;94512.72;;;23.22;31.21
33151;BME280;19508;42.578;23.416;2022-10-16T10:08:05;94510.00;;;23.31;31.59
33151;BME280;19508;42.578;23.416;2022-10-16T10:10:41;94510.03;;;23.00;31.84
33151;BME280;19508;42.578;23.416;2022-10-16T10:13:22;94501.94;;;23.34;32.14
33151;BME280;19508;42.578;23.416;2022-10-16T10:15:51;94504.59;;;23.08;31.78
33151;BME280;19508;42.578;23.416;2022-10-16T10:18:19;94503.09;;;22.35;32.40
33151;BME280;19508;42.578;23.416;2022-10-16T10:20:57;94501.72;;;22.69;32.21
33151;BME280;19508;42.578;23.416;2022-10-16T10:23:25;94498.44;;;22.58;32.21
33151;BME280;19508;42.578;23.416;2022-10-16T10:26:09;94507.25;;;22.55;32.96
33151;BME280;19508;42.578;23.416;2022-10-16T10:28:59;94493.41;;;23.05;34.23
33151;BME280;19508;42.578;23.416;2022-10-16T10:31:54;94498.78;;;23.10;31.23
33151;BME280;19508;42.578;23.416;2022-10-16T10:42:47;94490.91;;;22.72;34.78
33151;BME280;19508;42.578;23.416;2022-10-16T10:45:17;94500.84;;;22.37;32.94
33151;BME280;19508;42.578;23.416;2022-10-16T10:50:44;94492.16;;;22.21;33.92
33151;BME280;19508;42.578;23.416;2022-10-16T10:53:34;94486.13;;;21.97;33.42
33151;BME280;19508;42.578;23.416;2022-10-16T11:01:39;94475.19;;;21.83;33.77
33151;BME280;19508;42.578;23.416;2022-10-16T11:07:02;94469.00;;;21.78;34.85
33151;BME280;19508;42.578;23.416;2022-10-16T11:09:47;94470.25;;;21.58;34.69
33151;BME280;19508;42.578;23.416;2022-10-16T11:25:47;94466.63;;;20.75;35.52
33151;BME280;19508;42.578;23.416;2022-10-16T11:28:35;94464.50;;;20.72;34.89
33151;BME280;19508;42.578;23.416;2022-10-16T11:31:04;94458.13;;;20.76;34.04
33151;BME280;19508;42.578;23.416;2022-10-16T11:33:37;94449.63;;;20.78;34.71
33151;BME280;19508;42.578;23.416;2022-10-16T11:36:16;94465.41;;;20.67;34.73
33151;BME280;19508;42.578;23.416;2022-10-16T11:44:14;94452.47;;;20.87;32.46
33151;BME280;19508;42.578;23.416;2022-10-16T11:46:57;94468.88;;;20.73;31.24
33151;BME280;19508;42.578;23.416;2022-10-16T11:49:25;94465.16;;;20.50;31.06
33151;BME280;19508;42.578;23.416;2022-10-16T11:54:51;94463.63;;;20.90;30.92
33151;BME280;19508;42.578;23.416;2022-10-16T11:57:32;94459.19;;;21.22;30.36
33151;BME280;19508;42.578;23.416;2022-10-16T12:00:03;94459.00;;;21.32;30.64
33151;BME280;19508;42.578;23.416;2022-10-16T12:08:09;94440.34;;;21.48;29.81
33151;BME280;19508;42.578;23.416;2022-10-16T12:10:38;94454.72;;;21.53;29.44
33151;BME280;19508;42.578;23.416;2022-10-16T12:13:25;94452.50;;;21.42;29.53
33151;BME280;19508;42.578;23.416;2022-10-16T12:15:50;94453.91;;;21.53;30.55
33151;BME280;19508;42.578;23.416;2022-10-16T12:18:24;94446.00;;;21.51;27.83
33151;BME280;19508;42.578;23.416;2022-10-16T12:20:57;94446.69;;;22.07;27.84
33151;BME280;19508;42.578;23.416;2022-10-16T12:23:26;94452.78;;;22.40;27.05
33151;BME280;19508;42.578;23.416;2022-10-16T12:25:56;94445.31;;;23.16;27.14
33151;BME280;19508;42.578;23.416;2022-10-16T12:28:26;94450.38;;;23.88;25.93
33151;BME280;19508;42.578;23.416;2022-10-16T12:30:57;94450.25;;;24.11;25.21
33151;BME280;19508;42.578;23.416;2022-10-16T12:35:53;94452.50;;;23.34;26.67
33151;BME280;19508;42.578;23.416;2022-10-16T12:38:22;94452.97;;;22.97;27.92
33151;BME280;19508;42.578;23.416;2022-10-16T12:41:02;94451.28;;;22.34;27.34
33151;BME280;19508;42.578;23.416;2022-10-16T12:43:39;94447.63;;;23.31;27.54
33151;BME280;19508;42.578;23.416;2022-10-16T12:48:33;94450.59;;;23.44;27.33
33151;BME280;19508;42.578;23.416;2022-10-16T12:54:04;94455.59;;;22.79;27.72
33151;BME280;19508;42.578;23.416;2022-10-16T12:59:21;94452.75;;;23.24;27.06
33151;BME280;19508;42.578;23.416;2022-10-16T13:04:58;94452.00;;;24.24;25.61
33151;BME280;19508;42.578;23.416;2022-10-16T13:10:26;94464.34;;;24.53;25.46
33151;BME280;19508;42.578;23.416;2022-10-16T13:13:40;94464.97;;;24.50;26.08
33151;BME280;19508;42.578;23.416;2022-10-16T13:28:59;94472.34;;;22.24;28.55
33151;BME280;19508;42.578;23.416;2022-10-16T13:31:26;94462.50;;;21.74;29.32
33151;BME280;19508;42.578;23.416;2022-10-16T13:33:54;94466.59;;;21.21;29.98
33151;BME280;19508;42.578;23.416;2022-10-16T13:36:34;94470.53;;;20.88;30.97
33151;BME280;19508;42.578;23.416;2022-10-16T13:39:09;94476.81;;;21.02;31.22
33151;BME280;19508;42.578;23.416;2022-10-16T13:41:36;94468.69;;;21.10;30.30
33151;BME280;19508;42.578;23.416;2022-10-16T13:44:01;94470.06;;;21.27;31.03
33151;BME280;19508;42.578;23.416;2022-10-16T13:46:27;94467.84;;;21.29;31.47
33151;BME280;19508;42.578;23.416;2022-10-16T13:49:18;94474.94;;;21.30;31.52
33151;BME280;19508;42.578;23.416;2022-10-16T13:52:03;94467.72;;;21.34;31.62
33151;BME280;19508;42.578;23.416;2022-10-16T13:54:29;94468.22;;;21.63;30.73
33151;BME280;19508;42.578;23.416;2022-10-16T13:56:54;94475.38;;;21.87;30.68
33151;BME280;19508;42.578;23.416;2022-10-16T13:59:33;94477.59;;;21.99;29.93
33151;BME280;19508;42.578;23.416;2022-10-16T14:02:04;94474.06;;;22.20;30.20
33151;BME280;19508;42.578;23.416;2022-10-16T14:04:32;94470.13;;;21.77;29.83
33151;BME280;19508;42.578;23.416;2022-10-16T14:06:58;94470.97;;;21.63;28.97
33151;BME280;19508;42.578;23.416;2022-10-16T14:09:26;94480.44;;;21.30;30.30
33151;BME280;19508;42.578;23.416;2022-10-16T14:14:23;94493.56;;;20.68;30.52
33151;BME280;19508;42.578;23.416;2022-10-16T14:16:49;94493.38;;;20.64;30.80
33151;BME280;19508;42.578;23.416;2022-10-16T14:19:22;94494.88;;;20.38;31.30
33151;BME280;19508;42.578;23.416;2022-10-16T14:21:50;94498.63;;;20.09;31.73
33151;BME280;19508;42.578;23.416;2022-10-16T14:24:31;94506.69;;;20.00;31.82
33151;BME280;19508;42.578;23.416;2022-10-16T14:26:57;94502.97;;;19.91;32.37
33151;BME280;19508;42.578;23.416;2022-10-16T14:29:24;94507.69;;;19.86;32.91
33151;BME280;19508;42.578;23.416;2022-10-16T14:34:27;94496.63;;;19.53;33.59
33151;BME280;19508;42.578;23.416;2022-10-16T14:36:54;94501.00;;;19.30;33.71
33151;BME280;19508;42.578;23.416;2022-10-16T14:39:21;94509.13;;;19.11;34.54
33151;BME280;19508;42.578;23.416;2022-10-16T14:41:49;94505.56;;;19.16;34.00
33151;BME280;19508;42.578;23.416;2022-10-16T14:44:17;94501.41;;;18.95;34.36
33151;BME280;19508;42.578;23.416;2022-10-16T14:46:43;94500.38;;;18.91;35.18
33151;BME280;19508;42.578;23.416;2022-10-16T14:51:35;94507.41;;;18.68;35.91